aviador You're here:

LDZD Decoded Metar

ZADAR in CROATIA
Report Time2018-05-25 20:30:00
UTC Time2018-05-25 20:48:20
Flight Rules vfr VFR
WindVRB at 01 kt
Visibility9999 m
Phenomena:N/A
Clouds:N/A
Expected CloudBase > 2,000 ft AGL from Temp-Dew spread
CeilingNone
Temp20°C (ISA +6)
Dew Point15°C (73% RH)
QNH1016 hPa
Density Alt1,053 ft
Elevation276 ft
Report Wrong Elevation
Raw Report
LDZD 252030Z VRB01KT CAVOK 20/15 Q1016 NOSIG=

Extra information for LDZD:More info

Metar Taf Metar & Taf Last 4 Metars F.Rules Stats Wind Profile Meteogram Temp Stats Airport Information Weather charts Add Link Nearby VenuesMetar ALERT Operation Metar Decoded Social comments